Terminal Aerodrome Forecast
Issued by NWS Lake Charles, LA

Home | Current Version | Previous Version | Text Only | Print | Product List | Glossary On
Versions: 1 2 3 4 5 6 7 8 9 10 11 12 13 14 15 16 17 18 19
524
FTUS44 KLCH 291126
TAFLCH
TAF
KLCH 291126Z 2912/3012 15014KT P6SM BKN025
     FM291700 17017G29KT P6SM VCTS OVC025CB
     FM300300 19012KT P6SM VCTS OVC025CB
     FM300900 21007KT P6SM VCSH OVC015=

USA.gov is the U.S. government's official web portal to all federal, state and local government web resources and services.